createdAt,value
2018-07-02T00:01:01.569Z,97614.30
2018-07-02T00:03:30.116Z,97606.19
2018-07-02T00:06:09.969Z,97641.70
2018-07-02T00:08:38.532Z,97648.80
2018-07-02T00:11:07.226Z,97657.93
2018-07-02T00:13:35.768Z,97671.13
2018-07-02T00:16:04.331Z,97633.58
2018-07-02T00:18:32.845Z,97667.06
2018-07-02T00:21:01.763Z,97683.30
2018-07-02T00:23:31.013Z,97703.59
2018-07-02T00:25:59.508Z,97686.34
2018-07-02T00:28:27.990Z,97711.70
2018-07-02T00:30:56.498Z,97766.49
2018-07-02T00:33:25.019Z,97754.31
2018-07-02T00:35:53.525Z,97774.61
2018-07-02T00:38:22.021Z,97777.66
2018-07-02T00:40:50.497Z,97759.39
2018-07-02T00:43:19.025Z,97814.19
2018-07-02T00:45:47.492Z,97769.54
2018-07-02T00:48:16.504Z,97810.12
2018-07-02T00:50:45.026Z,97794.91
2018-07-02T00:53:13.499Z,97803.02
2018-07-02T00:55:42.061Z,97849.70
2018-07-02T00:58:10.598Z,97860.86
2018-07-02T01:00:39.092Z,97836.50
2018-07-02T01:03:08.193Z,97832.45
2018-07-02T01:05:36.693Z,97891.30
2018-07-02T01:08:05.180Z,97837.52
2018-07-02T01:10:34.217Z,97864.91
2018-07-02T01:13:02.718Z,97869.99
2018-07-02T01:15:31.221Z,97876.08
2018-07-02T01:17:59.821Z,97872.02
2018-07-02T01:20:28.297Z,97880.13
2018-07-02T01:22:56.784Z,97861.88
2018-07-02T01:25:25.288Z,97885.21
2018-07-02T01:27:53.795Z,97849.70
2018-07-02T01:30:22.324Z,97883.18
2018-07-02T01:32:50.854Z,97921.73
2018-07-02T01:35:19.344Z,97875.06
2018-07-02T01:37:47.873Z,97908.55
2018-07-02T01:40:16.521Z,97904.48
2018-07-02T01:44:14.188Z,97896.38
2018-07-02T01:46:42.677Z,97925.80
2018-07-02T01:49:11.324Z,97933.91
2018-07-02T01:51:39.841Z,97915.65
2018-07-02T01:54:08.325Z,97961.31
2018-07-02T01:56:36.841Z,97895.36
2018-07-02T01:59:05.524Z,97966.38
2018-07-02T02:01:34.029Z,97977.55
2018-07-02T02:04:02.500Z,97953.20
2018-07-02T02:06:31.208Z,97956.23
2018-07-02T02:08:59.689Z,97961.31
2018-07-02T02:11:28.217Z,97953.20
2018-07-02T02:13:56.759Z,97997.84
2018-07-02T02:16:25.325Z,97982.63
2018-07-02T02:18:53.863Z,97976.53
2018-07-02T02:21:22.404Z,97942.03
2018-07-02T02:23:51.082Z,97947.11
2018-07-02T02:26:19.586Z,97993.78
2018-07-02T02:28:48.090Z,97984.65
2018-07-02T02:31:16.651Z,97990.73
2018-07-02T02:33:45.234Z,98034.37
2018-07-02T02:36:13.753Z,98021.17
2018-07-02T02:38:42.247Z,98007.98
2018-07-02T02:41:10.845Z,98002.91
2018-07-02T02:43:39.435Z,98021.17
2018-07-02T02:46:08.222Z,98022.19
2018-07-02T02:48:36.975Z,98011.03
2018-07-02T02:51:05.864Z,98045.53
2018-07-02T02:53:34.365Z,98015.09
2018-07-02T02:56:02.914Z,98012.05
2018-07-02T02:58:31.529Z,98047.56
2018-07-02T03:01:00.082Z,98056.70
2018-07-02T03:03:28.759Z,98072.93
2018-07-02T03:05:57.306Z,98044.52
2018-07-02T03:08:25.814Z,98054.66
2018-07-02T03:10:54.343Z,98046.55
2018-07-02T03:13:22.887Z,98069.89
2018-07-02T03:15:51.399Z,98092.20
2018-07-02T03:18:19.889Z,98084.09
2018-07-02T03:20:48.535Z,98054.66
2018-07-02T03:23:17.034Z,98075.97
2018-07-02T03:25:45.521Z,98095.25
2018-07-02T03:28:14.061Z,98069.89
2018-07-02T03:30:42.597Z,98068.88
2018-07-02T03:33:11.301Z,98054.66
2018-07-02T03:35:39.809Z,98083.08
2018-07-02T03:38:08.327Z,98097.28
2018-07-02T03:40:37.310Z,98068.88
2018-07-02T03:43:05.858Z,98083.08
2018-07-02T03:45:34.622Z,98080.03
2018-07-02T03:48:03.211Z,98064.81
2018-07-02T03:50:32.003Z,98062.78
2018-07-02T03:53:00.546Z,98073.95
2018-07-02T03:55:29.136Z,98063.80
2018-07-02T03:57:58.625Z,98073.95
2018-07-02T04:00:27.127Z,98129.75
2018-07-02T04:02:55.675Z,98061.77
2018-07-02T04:05:24.194Z,98078.00
2018-07-02T04:07:52.886Z,98013.06
2018-07-02T04:10:21.399Z,97973.48
2018-07-02T04:12:50.054Z,97887.23
2018-07-02T04:15:18.610Z,97787.80
2018-07-02T04:17:47.113Z,97822.30
2018-07-02T04:20:16.095Z,97828.39
2018-07-02T04:22:44.610Z,97794.91
2018-07-02T04:25:13.184Z,97745.19
2018-07-02T04:27:41.686Z,97668.08
2018-07-02T04:30:10.210Z,97670.11
2018-07-02T04:32:38.775Z,97705.62
2018-07-02T04:35:07.302Z,97673.15
2018-07-02T04:37:36.456Z,97675.18
2018-07-02T04:40:05.075Z,97715.77
2018-07-02T04:42:33.596Z,97753.30
2018-07-02T04:45:02.187Z,97746.20
2018-07-02T04:47:30.741Z,97820.27
2018-07-02T04:49:59.217Z,97702.58
2018-07-02T04:52:27.746Z,97682.28
2018-07-02T04:54:56.284Z,97733.02
2018-07-02T04:57:24.953Z,97646.77
2018-07-02T04:59:53.441Z,97712.72
2018-07-02T05:02:21.933Z,97669.09
2018-07-02T05:04:50.490Z,97655.90
2018-07-02T05:07:18.981Z,97493.56
2018-07-02T05:09:47.498Z,97213.56
2018-07-02T05:12:16.117Z,96967.05
2018-07-02T05:14:44.702Z,96937.63
2018-07-02T05:17:13.273Z,96769.25
2018-07-02T05:19:42.337Z,96722.59
2018-07-02T05:22:10.860Z,96912.27
2018-07-02T05:24:40.499Z,96943.72
2018-07-02T05:27:09.237Z,96702.30
2018-07-02T05:29:38.186Z,96600.88
2018-07-02T05:32:06.665Z,96630.28
2018-07-02T05:34:35.650Z,96545.09
2018-07-02T05:37:04.154Z,96392.95
2018-07-02T05:39:32.627Z,96960.97
2018-07-02T05:42:01.102Z,97051.25
2018-07-02T05:44:29.993Z,96756.06
2018-07-02T05:46:58.452Z,96264.14
2018-07-02T05:49:26.974Z,96285.44
2018-07-02T05:51:55.674Z,96616.09
2018-07-02T05:54:24.149Z,96628.26
2018-07-02T05:56:53.147Z,96472.05
2018-07-02T05:59:21.673Z,96571.45
2018-07-02T06:01:50.149Z,96520.74
2018-07-02T06:04:19.017Z,96508.57
2018-07-02T06:06:47.543Z,96484.23
2018-07-02T06:09:16.049Z,96431.48
2018-07-02T06:11:44.561Z,96331.08
2018-07-02T06:14:13.072Z,96394.97
2018-07-02T06:16:41.580Z,96382.80
2018-07-02T06:19:10.081Z,96380.77
2018-07-02T06:21:38.586Z,96426.41
2018-07-02T06:24:07.122Z,96562.33
2018-07-02T06:26:35.623Z,96643.47
2018-07-02T06:29:04.119Z,96342.23
2018-07-02T06:31:32.688Z,96033.92
2018-07-02T06:34:01.157Z,96273.27
2018-07-02T06:36:29.665Z,96531.90
2018-07-02T06:38:58.197Z,96307.75
2018-07-02T06:41:26.694Z,96295.58
2018-07-02T06:43:55.354Z,96435.55
2018-07-02T06:46:23.865Z,96434.53
2018-07-02T06:48:52.340Z,96070.44
2018-07-02T06:51:20.814Z,96414.24
2018-07-02T06:53:49.312Z,96519.73
2018-07-02T06:56:17.823Z,96172.86
2018-07-02T06:58:46.444Z,96134.32
2018-07-02T07:01:14.945Z,96357.45
2018-07-02T07:03:43.433Z,96383.81
2018-07-02T07:06:12.037Z,96330.06
2018-07-02T07:08:40.597Z,96258.05
2018-07-02T07:11:09.130Z,96087.67
2018-07-02T07:13:37.749Z,96193.15
2018-07-02T07:16:07.091Z,96148.52
2018-07-02T07:18:35.620Z,96380.77
2018-07-02T07:21:04.087Z,95947.72
2018-07-02T07:23:32.653Z,96145.48
2018-07-02T07:26:01.478Z,96203.28
2018-07-02T07:28:29.947Z,96517.70
2018-07-02T07:30:58.443Z,96554.21
2018-07-02T07:33:27.393Z,96485.24
2018-07-02T07:35:55.909Z,96517.70
2018-07-02T07:38:24.383Z,96608.98
2018-07-02T07:40:53.479Z,96599.86
2018-07-02T07:43:21.982Z,96563.34
2018-07-02T07:45:50.551Z,96544.07
2018-07-02T07:48:19.022Z,96587.69
2018-07-02T07:50:47.515Z,96512.63
2018-07-02T07:53:16.030Z,96529.88
2018-07-02T07:55:44.510Z,96506.55
2018-07-02T07:58:13.031Z,96523.78
2018-07-02T08:00:41.526Z,96444.67
2018-07-02T08:03:10.479Z,96502.48
2018-07-02T08:05:38.942Z,96469.02
2018-07-02T08:08:07.427Z,96465.97
2018-07-02T08:10:35.943Z,96400.05
2018-07-02T08:13:04.425Z,96458.88
2018-07-02T08:15:32.985Z,96401.06
2018-07-02T08:18:01.570Z,96529.88
2018-07-02T08:20:30.081Z,96417.29
2018-07-02T08:22:58.674Z,96464.95
2018-07-02T08:25:27.165Z,96435.55
2018-07-02T08:27:55.648Z,96428.44
2018-07-02T08:30:24.150Z,96308.77
2018-07-02T08:32:52.667Z,96285.44
2018-07-02T08:35:21.162Z,96270.22
2018-07-02T08:37:49.639Z,96321.95
2018-07-02T08:40:18.252Z,96340.20
2018-07-02T08:42:46.711Z,96252.98
2018-07-02T08:45:15.211Z,96283.41
2018-07-02T08:47:43.710Z,96257.04
2018-07-02T08:50:12.224Z,96252.98
2018-07-02T08:52:41.185Z,96286.45
2018-07-02T08:55:09.716Z,96246.89
2018-07-02T08:57:38.170Z,96300.65
2018-07-02T09:00:06.730Z,96321.95
2018-07-02T09:02:35.265Z,96250.95
2018-07-02T09:05:03.841Z,96280.37
2018-07-02T09:07:32.393Z,96264.14
2018-07-02T09:10:00.917Z,96303.69
2018-07-02T09:12:29.417Z,96257.04
2018-07-02T09:14:57.920Z,96223.57
2018-07-02T09:17:26.545Z,96220.53
2018-07-02T09:19:55.103Z,96171.84
2018-07-02T09:22:23.670Z,96123.17
2018-07-02T09:24:52.205Z,96194.16
2018-07-02T09:27:20.701Z,96222.56
2018-07-02T09:29:49.166Z,96193.15
2018-07-02T09:32:17.636Z,96167.80
2018-07-02T09:34:46.332Z,96184.02
2018-07-02T09:37:14.805Z,96232.70
2018-07-02T09:39:43.269Z,96204.30
2018-07-02T09:42:11.781Z,96143.45
2018-07-02T09:44:40.492Z,96211.41
2018-07-02T09:47:08.973Z,96154.61
2018-07-02T09:49:37.469Z,96185.03
2018-07-02T09:52:06.000Z,96187.06
2018-07-02T09:54:34.506Z,96203.28
2018-07-02T09:57:03.025Z,96178.95
2018-07-02T09:59:31.647Z,96161.70
2018-07-02T10:02:00.145Z,96138.38
2018-07-02T10:04:28.726Z,96118.09
2018-07-02T10:06:57.203Z,96169.82
2018-07-02T10:09:25.812Z,96080.58
2018-07-02T10:11:54.294Z,96061.30
2018-07-02T10:14:22.847Z,96158.66
2018-07-02T10:16:51.548Z,96115.05
2018-07-02T10:19:20.084Z,96124.19
2018-07-02T10:21:48.554Z,96112.02
2018-07-02T10:24:17.249Z,96049.13
2018-07-02T10:26:45.768Z,96106.94
2018-07-02T10:29:14.303Z,96009.59
2018-07-02T10:31:42.897Z,95999.44
2018-07-02T10:34:11.385Z,96000.45
2018-07-02T10:36:39.969Z,95975.10
2018-07-02T10:39:09.421Z,95926.43
2018-07-02T10:41:38.593Z,95882.82
2018-07-02T10:44:07.408Z,95893.97
2018-07-02T10:46:36.113Z,95965.98
2018-07-02T10:49:04.603Z,95929.47
2018-07-02T10:51:33.385Z,95862.54
2018-07-02T10:54:01.863Z,95920.34
2018-07-02T10:56:30.324Z,95932.52
2018-07-02T10:58:58.857Z,95933.52
2018-07-02T11:01:27.398Z,95955.84
2018-07-02T11:03:55.883Z,95812.85
2018-07-02T11:06:24.486Z,95798.66
2018-07-02T11:08:52.956Z,95886.88
2018-07-02T11:11:21.557Z,95878.77
2018-07-02T11:13:49.978Z,95909.19
2018-07-02T11:16:18.513Z,95779.38
2018-07-02T11:18:47.038Z,95771.27
2018-07-02T11:21:16.053Z,95903.10
2018-07-02T11:23:44.754Z,95890.94
2018-07-02T11:26:13.238Z,95887.89
2018-07-02T11:28:41.720Z,95885.86
2018-07-02T11:31:10.215Z,95849.36
2018-07-02T11:33:38.705Z,95831.10
2018-07-02T11:36:07.193Z,95758.09
2018-07-02T11:38:35.662Z,95762.14
2018-07-02T11:41:04.225Z,95738.82
2018-07-02T11:43:32.806Z,95672.91
2018-07-02T11:46:01.357Z,95592.80
2018-07-02T11:48:29.892Z,95661.76
2018-07-02T11:50:58.394Z,95633.36
2018-07-02T11:53:26.931Z,95683.05
2018-07-02T11:55:55.397Z,95761.13
2018-07-02T11:58:23.889Z,95783.44
2018-07-02T12:00:52.418Z,95712.45
2018-07-02T12:03:21.325Z,95719.55
2018-07-02T12:05:49.817Z,95715.50
2018-07-02T12:08:18.685Z,95654.66
2018-07-02T12:10:47.173Z,95718.55
2018-07-02T12:13:15.832Z,95677.98
2018-07-02T12:15:44.501Z,95728.69
2018-07-02T12:18:13.045Z,95616.13
2018-07-02T12:20:41.529Z,95613.08
2018-07-02T12:23:10.062Z,95749.98
2018-07-02T12:25:38.558Z,95700.29
2018-07-02T12:28:07.193Z,95797.64
2018-07-02T12:30:35.751Z,95664.80
2018-07-02T12:33:04.384Z,95692.17
2018-07-02T12:35:33.127Z,95635.39
2018-07-02T12:38:01.633Z,95635.39
2018-07-02T12:40:30.127Z,95717.53
2018-07-02T12:42:58.625Z,95585.70
2018-07-02T12:45:27.181Z,95575.56
2018-07-02T12:47:56.137Z,95643.50
2018-07-02T12:50:25.468Z,95626.27
2018-07-02T12:52:54.325Z,95611.05
2018-07-02T12:55:23.202Z,95536.02
2018-07-02T12:57:51.673Z,95605.98
2018-07-02T13:00:20.161Z,95618.16
2018-07-02T13:02:48.673Z,95640.46
2018-07-02T13:05:17.209Z,95617.14
2018-07-02T13:07:45.813Z,95610.04
2018-07-02T13:10:14.328Z,95575.56
2018-07-02T13:12:42.849Z,95487.34
2018-07-02T13:15:11.426Z,95530.95
2018-07-02T13:17:39.914Z,95613.08
2018-07-02T13:20:08.405Z,95426.52
2018-07-02T13:22:37.385Z,95484.30
2018-07-02T13:25:05.943Z,95588.75
2018-07-02T13:27:34.473Z,95671.90
2018-07-02T13:30:03.184Z,95633.36
2018-07-02T13:32:31.621Z,95522.84
2018-07-02T13:35:00.102Z,95533.99
2018-07-02T13:37:28.621Z,95485.32
2018-07-02T13:39:57.097Z,95412.31
2018-07-02T13:42:25.701Z,95501.55
2018-07-02T13:44:54.180Z,95488.36
2018-07-02T13:47:22.658Z,95491.41
2018-07-02T13:49:51.190Z,95452.88
2018-07-02T13:52:19.673Z,95442.73
2018-07-02T13:54:48.191Z,95551.23
2018-07-02T13:57:16.822Z,95577.59
2018-07-02T13:59:45.405Z,95462.00
2018-07-02T14:02:13.922Z,95439.69
2018-07-02T14:04:43.022Z,95459.97
2018-07-02T14:07:11.495Z,95440.70
2018-07-02T14:09:39.981Z,95506.61
2018-07-02T14:12:08.932Z,95518.78
2018-07-02T14:14:37.454Z,95472.14
2018-07-02T14:17:05.950Z,95448.82
2018-07-02T14:19:34.501Z,95467.07
2018-07-02T14:22:03.041Z,95447.80
2018-07-02T14:24:31.590Z,95536.02
2018-07-02T14:27:00.060Z,95507.62
2018-07-02T14:29:28.521Z,95446.80
2018-07-02T14:31:57.031Z,95384.94
2018-07-02T14:34:25.536Z,95385.95
2018-07-02T14:36:54.069Z,95441.72
2018-07-02T14:39:22.595Z,95429.55
2018-07-02T14:41:51.092Z,95359.59
2018-07-02T14:44:19.598Z,95342.35
2018-07-02T14:46:48.069Z,95482.28
2018-07-02T14:49:16.576Z,95506.61
2018-07-02T14:51:45.081Z,95417.39
2018-07-02T14:54:13.607Z,95426.52
2018-07-02T14:56:42.085Z,95500.53
2018-07-02T14:59:10.617Z,95392.04
2018-07-02T15:01:39.137Z,95362.63
2018-07-02T15:04:07.645Z,95374.80
2018-07-02T15:06:36.196Z,95450.84
2018-07-02T15:09:08.300Z,95404.20
2018-07-02T15:11:36.810Z,95490.39
2018-07-02T15:14:05.325Z,95431.58
2018-07-02T15:16:33.809Z,95394.06
2018-07-02T15:19:02.432Z,95435.64
2018-07-02T15:21:31.046Z,95421.44
2018-07-02T15:23:59.545Z,95449.83
2018-07-02T15:26:28.019Z,95407.25
2018-07-02T15:28:56.692Z,95450.84
2018-07-02T15:31:25.188Z,95485.32
2018-07-02T15:33:53.671Z,95436.66
2018-07-02T15:36:22.638Z,95374.80
2018-07-02T15:38:51.257Z,95292.67
2018-07-02T15:41:19.866Z,95320.05
2018-07-02T15:43:48.475Z,95390.02
2018-07-02T15:46:17.001Z,95322.08
2018-07-02T15:48:45.523Z,95422.45
2018-07-02T15:51:14.093Z,95423.47
2018-07-02T15:53:42.625Z,95357.56
2018-07-02T15:56:11.117Z,95396.09
2018-07-02T15:58:39.870Z,95466.05
2018-07-02T16:01:08.349Z,95458.95
2018-07-02T16:03:37.062Z,95463.02
2018-07-02T16:06:05.520Z,95392.04
2018-07-02T16:08:34.065Z,95447.80
2018-07-02T16:11:02.593Z,95496.47
2018-07-02T16:13:31.092Z,95497.48
2018-07-02T16:15:59.621Z,95462.00
2018-07-02T16:18:28.095Z,95460.98
2018-07-02T16:20:56.577Z,95424.48
2018-07-02T16:23:25.090Z,95407.25
2018-07-02T16:25:53.599Z,95433.61
2018-07-02T16:28:22.069Z,95391.02
2018-07-02T16:30:51.089Z,95371.76
2018-07-02T16:33:19.596Z,95332.21
2018-07-02T16:35:48.283Z,95435.64
2018-07-02T16:38:16.822Z,95464.03
2018-07-02T16:40:45.370Z,95432.59
2018-07-02T16:43:13.914Z,95414.34
2018-07-02T16:45:42.505Z,95390.02
2018-07-02T16:48:11.001Z,95329.17
2018-07-02T16:50:39.612Z,95437.66
2018-07-02T16:53:08.157Z,95431.58
2018-07-02T16:55:36.814Z,95462.00
2018-07-02T16:58:05.717Z,95446.80
2018-07-02T17:00:34.293Z,95526.89
2018-07-02T17:03:02.936Z,95469.09
2018-07-02T17:05:31.492Z,95471.13
2018-07-02T17:08:00.114Z,95421.44
2018-07-02T17:10:28.606Z,95444.77
2018-07-02T17:12:57.177Z,95467.07
2018-07-02T17:15:25.705Z,95433.61
2018-07-02T17:17:54.210Z,95498.50
2018-07-02T17:20:22.983Z,95440.70
2018-07-02T17:22:51.546Z,95437.66
2018-07-02T17:25:20.002Z,95405.22
2018-07-02T17:27:48.488Z,95429.55
2018-07-02T17:30:17.209Z,95508.64
2018-07-02T17:32:46.410Z,95520.81
2018-07-02T17:35:15.028Z,95516.75
2018-07-02T17:37:43.536Z,95511.69
2018-07-02T17:40:12.001Z,95547.17
2018-07-02T17:42:40.656Z,95566.44
2018-07-02T17:45:09.162Z,95572.52
2018-07-02T17:47:37.640Z,95530.95
2018-07-02T17:50:07.261Z,95575.56
2018-07-02T17:52:35.747Z,95503.58
2018-07-02T17:55:04.346Z,95349.45
2018-07-02T17:57:32.889Z,95238.94
2018-07-02T18:00:01.532Z,95020.95
2018-07-02T18:02:30.026Z,94893.21
2018-07-02T18:04:58.542Z,94593.14
2018-07-02T18:07:27.114Z,94712.76
2018-07-02T18:09:56.214Z,94674.23
2018-07-02T18:12:24.832Z,94794.87
2018-07-02T18:14:53.386Z,94479.61
2018-07-02T18:17:22.529Z,94417.77
2018-07-02T18:19:51.122Z,94010.30
2018-07-02T18:22:20.012Z,93887.67
2018-07-02T18:24:48.579Z,93964.70
2018-07-02T18:27:17.571Z,94632.67
2018-07-02T18:29:46.256Z,95039.20
2018-07-02T18:32:14.764Z,95104.09
2018-07-02T18:34:43.244Z,95261.23
2018-07-02T18:37:11.749Z,95399.13
2018-07-02T18:39:40.249Z,95447.80
2018-07-02T18:42:09.197Z,95545.15
2018-07-02T18:44:37.861Z,95597.88
2018-07-02T18:47:09.658Z,95757.08
2018-07-02T18:49:38.157Z,95807.78
2018-07-02T18:52:06.975Z,95706.38
2018-07-02T18:54:35.459Z,95712.45
2018-07-02T18:57:04.018Z,95812.85
2018-07-02T18:59:32.614Z,95827.05
2018-07-02T19:02:01.101Z,95890.94
2018-07-02T19:04:30.016Z,95873.70
2018-07-02T19:06:58.541Z,95725.64
2018-07-02T19:09:27.594Z,95798.66
2018-07-02T19:11:56.124Z,95668.85
2018-07-02T19:14:24.588Z,95859.50
2018-07-02T19:16:53.246Z,96012.63
2018-07-02T19:19:21.782Z,96019.72
2018-07-02T19:21:50.310Z,95939.61
2018-07-02T19:24:18.782Z,96019.72
2018-07-02T19:26:47.286Z,96002.48
2018-07-02T19:29:16.033Z,95966.99
2018-07-02T19:31:44.586Z,95918.31
2018-07-02T19:34:13.134Z,96044.06
2018-07-02T19:36:41.609Z,96065.36
2018-07-02T19:39:12.441Z,96159.67
2018-07-02T19:41:41.021Z,96287.47
2018-07-02T19:44:10.094Z,96349.33
2018-07-02T19:46:38.630Z,96450.76
2018-07-02T19:49:07.117Z,96392.95
2018-07-02T19:51:35.809Z,96455.83
2018-07-02T19:54:04.546Z,96485.24
2018-07-02T19:56:33.150Z,96477.13
2018-07-02T19:59:01.594Z,96527.84
2018-07-02T20:01:30.123Z,96551.17
2018-07-02T20:03:58.679Z,96574.50
2018-07-02T20:06:27.565Z,96578.55
2018-07-02T20:08:56.067Z,96634.34
2018-07-02T20:11:24.899Z,96671.88
2018-07-02T20:13:53.758Z,96753.02
2018-07-02T20:16:22.290Z,96741.86
2018-07-02T20:18:50.825Z,96813.88
2018-07-02T20:21:19.785Z,96867.64
2018-07-02T20:23:48.308Z,96861.55
2018-07-02T20:26:16.890Z,96896.05
2018-07-02T20:28:45.451Z,96917.34
2018-07-02T20:31:14.399Z,96910.25
2018-07-02T20:33:42.899Z,96961.98
2018-07-02T20:36:11.362Z,96954.88
2018-07-02T20:38:39.961Z,96934.59
2018-07-02T20:41:08.477Z,96979.22
2018-07-02T20:43:37.545Z,97007.63
2018-07-02T20:46:06.517Z,96994.44
2018-07-02T20:48:35.056Z,97032.98
2018-07-02T20:51:04.483Z,97012.70
2018-07-02T20:53:33.103Z,97038.06
2018-07-02T20:56:01.887Z,97063.42
2018-07-02T20:58:30.582Z,97116.17
2018-07-02T21:00:59.045Z,97120.23
2018-07-02T21:03:27.556Z,97081.69
2018-07-02T21:05:56.252Z,97137.48
2018-07-02T21:08:24.721Z,97108.06
2018-07-02T21:10:53.251Z,97156.75
2018-07-02T21:13:22.249Z,97185.16
2018-07-02T21:15:51.202Z,97130.38
2018-07-02T21:18:19.650Z,97192.26
2018-07-02T21:20:48.260Z,97201.39
2018-07-02T21:23:16.729Z,97239.94
2018-07-02T21:25:45.414Z,97248.05
2018-07-02T21:28:14.152Z,97260.23
2018-07-02T21:30:42.641Z,97215.59
2018-07-02T21:33:11.319Z,97267.33
2018-07-02T21:35:39.824Z,97285.59
2018-07-02T21:38:08.535Z,97295.73
2018-07-02T21:40:37.042Z,97280.52
2018-07-02T21:43:06.153Z,97309.94
2018-07-02T21:45:35.165Z,97299.80
2018-07-02T21:48:04.718Z,97298.78
2018-07-02T21:50:33.179Z,97327.19
2018-07-02T21:53:01.669Z,97303.84
2018-07-02T21:55:30.212Z,97310.95
2018-07-02T21:57:59.291Z,97328.20
2018-07-02T22:00:27.812Z,97346.45
2018-07-02T22:02:56.642Z,97371.82
2018-07-02T22:05:25.435Z,97358.63
2018-07-02T22:07:53.927Z,97380.95
2018-07-02T22:10:22.438Z,97344.43
2018-07-02T22:12:50.926Z,97380.95
2018-07-02T22:15:19.488Z,97372.84
2018-07-02T22:17:48.341Z,97373.85
2018-07-02T22:20:16.836Z,97378.92
2018-07-02T22:22:45.625Z,97440.81
2018-07-02T22:25:14.281Z,97379.94
2018-07-02T22:27:42.788Z,97409.36
2018-07-02T22:30:11.510Z,97415.45
2018-07-02T22:32:39.980Z,97423.56
2018-07-02T22:35:08.638Z,97417.48
2018-07-02T22:37:37.110Z,97435.73
2018-07-02T22:40:05.972Z,97451.97
2018-07-02T22:42:34.560Z,97447.91
2018-07-02T22:45:03.096Z,97490.52
2018-07-02T22:47:31.588Z,97484.44
2018-07-02T22:50:00.132Z,97507.77
2018-07-02T22:52:28.796Z,97522.98
2018-07-02T22:54:57.293Z,97517.92
2018-07-02T22:57:25.753Z,97510.81
2018-07-02T22:59:54.218Z,97521.98
2018-07-02T23:02:22.693Z,97571.69
2018-07-02T23:04:51.204Z,97542.27
2018-07-02T23:07:19.649Z,97576.77
2018-07-02T23:09:48.406Z,97582.84
2018-07-02T23:12:16.909Z,97596.04
2018-07-02T23:14:45.546Z,97633.58
2018-07-02T23:17:15.145Z,97624.45
2018-07-02T23:19:43.746Z,97646.77
2018-07-02T23:22:12.239Z,97640.68
2018-07-02T23:24:40.721Z,97643.73
2018-07-02T23:27:09.242Z,97625.46
2018-07-02T23:29:37.749Z,97658.95
2018-07-02T23:32:06.262Z,97678.22
2018-07-02T23:34:34.773Z,97661.98
2018-07-02T23:37:03.242Z,97675.18
2018-07-02T23:39:31.732Z,97691.41
2018-07-02T23:42:01.241Z,97686.34
2018-07-02T23:44:29.709Z,97718.81
2018-07-02T23:46:58.666Z,97656.92
2018-07-02T23:49:27.167Z,97709.67
2018-07-02T23:51:55.639Z,97720.84
2018-07-02T23:54:24.124Z,97738.08
2018-07-02T23:56:52.651Z,97711.70
2018-07-02T23:59:21.208Z,97724.89
